Terminal Aerodrome Forecast
Issued by NWS Louisville, KY

Home | Current Version | Previous Version | Text Only | Print | Product List | Glossary On
Versions: 1 2 3 4 5 6 7 8 9 10 11 12 13 14 15 16 17 18 19 20
625
FTUS43 KLMK 101734
TAFLEX
TAF
KLEX 101734Z 1018/1118 27012G18KT P6SM VCSH SCT020 BKN035
      TEMPO 1018/1020 3SM -SHSN BKN020
     FM110100 27006KT P6SM BKN035
     FM110700 29005KT P6SM SCT020 BKN080
     FM111600 32007KT P6SM SCT080=

USA.gov is the U.S. government's official web portal to all federal, state and local government web resources and services.